createdAt,value
2022-11-16T00:02:24.325Z,4.57
2022-11-16T00:05:32.960Z,3.70
2022-11-16T00:08:44.031Z,3.77
2022-11-16T00:11:54.488Z,3.77
2022-11-16T00:15:04.570Z,3.80
2022-11-16T00:18:13.028Z,3.67
2022-11-16T00:21:21.314Z,4.10
2022-11-16T00:24:29.577Z,4.90
2022-11-16T00:27:37.923Z,5.93
2022-11-16T00:30:47.918Z,5.90
2022-11-16T00:33:56.137Z,5.73
2022-11-16T00:37:04.585Z,5.83
2022-11-16T00:40:14.034Z,6.70
2022-11-16T00:43:22.421Z,5.30
2022-11-16T00:46:32.551Z,5.40
2022-11-16T00:49:40.780Z,5.40
2022-11-16T00:52:49.011Z,5.27
2022-11-16T00:55:57.425Z,4.90
2022-11-16T00:59:06.341Z,4.40
2022-11-16T01:02:17.019Z,4.70
2022-11-16T01:05:25.703Z,3.87
2022-11-16T01:08:36.315Z,3.90
2022-11-16T01:12:02.717Z,4.27
2022-11-16T01:15:12.265Z,4.83
2022-11-16T01:18:22.168Z,4.13
2022-11-16T01:21:30.556Z,4.80
2022-11-16T01:24:38.904Z,4.47
2022-11-16T01:27:47.216Z,4.67
2022-11-16T01:31:06.319Z,4.37
2022-11-16T01:34:19.146Z,4.90
2022-11-16T01:37:28.520Z,4.53
2022-11-16T01:40:38.211Z,4.33
2022-11-16T01:43:59.858Z,4.93
2022-11-16T01:47:16.203Z,4.47
2022-11-16T01:50:26.949Z,4.83
2022-11-16T01:53:36.113Z,4.63
2022-11-16T01:56:48.251Z,4.63
2022-11-16T02:00:11.341Z,4.93
2022-11-16T02:03:24.426Z,4.57
2022-11-16T02:06:57.860Z,4.57
2022-11-16T02:10:21.482Z,5.00
2022-11-16T02:13:46.779Z,4.27
2022-11-16T02:17:05.771Z,4.50
2022-11-16T02:20:52.628Z,4.70
2022-11-16T02:24:41.558Z,4.80
2022-11-16T02:28:14.776Z,5.00
2022-11-16T02:31:31.954Z,4.63
2022-11-16T02:34:46.384Z,5.13
2022-11-16T02:38:01.394Z,4.70
2022-11-16T02:41:16.522Z,4.30
2022-11-16T02:44:33.924Z,5.13
2022-11-16T02:47:47.120Z,4.83
2022-11-16T02:50:58.103Z,4.63
2022-11-16T02:54:14.878Z,4.70
2022-11-16T02:57:52.886Z,4.93
2022-11-16T03:01:07.500Z,4.47
2022-11-16T03:04:28.456Z,5.03
2022-11-16T03:07:53.283Z,4.27
2022-11-16T03:11:23.669Z,4.63
2022-11-16T03:14:43.046Z,4.70
2022-11-16T03:17:52.385Z,4.73
2022-11-16T03:21:14.879Z,4.90
2022-11-16T03:24:25.132Z,3.87
2022-11-16T03:27:45.727Z,4.43
2022-11-16T03:31:02.398Z,4.87
2022-11-16T03:34:20.079Z,3.90
2022-11-16T03:37:33.010Z,4.20
2022-11-16T03:40:45.420Z,4.13
2022-11-16T03:43:56.336Z,4.63
2022-11-16T03:47:05.258Z,5.17
2022-11-16T03:50:15.016Z,4.87
2022-11-16T03:53:27.133Z,4.37
2022-11-16T03:56:35.685Z,4.80
2022-11-16T03:59:45.372Z,4.53
2022-11-16T04:02:53.768Z,5.17
2022-11-16T04:06:21.310Z,4.90
2022-11-16T04:09:49.495Z,4.77
2022-11-16T04:13:16.766Z,4.87
2022-11-16T04:16:42.842Z,6.60
2022-11-16T04:20:08.704Z,6.00
2022-11-16T04:23:36.225Z,5.90
2022-11-16T04:27:09.003Z,6.40
2022-11-16T04:30:18.107Z,7.53
2022-11-16T04:33:45.188Z,6.67
2022-11-16T04:37:13.785Z,6.50
2022-11-16T04:40:25.442Z,7.10
2022-11-16T04:43:35.719Z,6.60
2022-11-16T04:47:01.657Z,7.03
2022-11-16T04:50:10.874Z,6.83
2022-11-16T04:53:22.570Z,6.93
2022-11-16T04:56:38.077Z,6.47
2022-11-16T04:59:48.579Z,7.03
2022-11-16T05:03:01.015Z,6.70
2022-11-16T05:06:10.095Z,6.43
2022-11-16T05:09:20.230Z,6.03
2022-11-16T05:12:30.644Z,6.13
2022-11-16T05:15:46.921Z,6.13
2022-11-16T05:19:09.339Z,5.50
2022-11-16T05:22:18.475Z,5.87
2022-11-16T05:25:32.528Z,5.17
2022-11-16T05:28:45.601Z,5.33
2022-11-16T05:31:57.258Z,4.83
2022-11-16T05:35:07.304Z,5.23
2022-11-16T05:38:15.936Z,4.37
2022-11-16T05:41:28.088Z,4.80
2022-11-16T05:44:36.777Z,4.07
2022-11-16T05:47:47.251Z,4.03
2022-11-16T05:50:59.742Z,4.20
2022-11-16T05:54:12.665Z,4.60
2022-11-16T05:57:21.755Z,5.07
2022-11-16T06:00:30.176Z,3.70
2022-11-16T06:03:41.782Z,4.57
2022-11-16T06:06:50.419Z,4.13
2022-11-16T06:10:00.332Z,4.10
2022-11-16T06:13:09.021Z,4.40
2022-11-16T06:16:17.932Z,3.80
2022-11-16T06:19:32.149Z,4.70
2022-11-16T06:22:41.172Z,4.57
2022-11-16T06:25:55.179Z,4.80
2022-11-16T06:29:06.569Z,4.50
2022-11-16T06:32:16.205Z,4.33
2022-11-16T06:35:26.031Z,4.10
2022-11-16T06:38:35.158Z,4.20
2022-11-16T06:41:44.565Z,4.40
2022-11-16T06:44:54.393Z,4.17
2022-11-16T06:48:07.539Z,3.97
2022-11-16T06:51:17.478Z,4.30
2022-11-16T06:54:25.822Z,4.60
2022-11-16T06:57:35.554Z,4.40
2022-11-16T07:00:45.045Z,5.00
2022-11-16T07:03:54.248Z,5.10
2022-11-16T07:07:04.307Z,4.80
2022-11-16T07:10:15.625Z,4.60
2022-11-16T07:13:24.844Z,5.03
2022-11-16T07:16:35.678Z,4.93
2022-11-16T07:19:44.703Z,4.23
2022-11-16T07:22:54.484Z,4.30
2022-11-16T07:26:05.276Z,4.43
2022-11-16T07:29:22.782Z,4.73
2022-11-16T07:33:02.353Z,4.40
2022-11-16T07:36:42.754Z,5.57
2022-11-16T07:39:53.511Z,5.97
2022-11-16T07:43:03.101Z,5.57
2022-11-16T07:46:48.351Z,5.03
2022-11-16T07:49:57.874Z,5.70
2022-11-16T07:53:08.993Z,5.37
2022-11-16T07:56:19.326Z,5.07
2022-11-16T07:59:28.502Z,7.57
2022-11-16T08:02:37.164Z,7.07
2022-11-16T08:05:45.680Z,7.27
2022-11-16T08:08:58.292Z,9.37
2022-11-16T08:12:09.115Z,8.97
2022-11-16T08:15:18.405Z,7.17
2022-11-16T08:18:28.451Z,6.10
2022-11-16T08:21:37.580Z,6.47
2022-11-16T08:24:46.077Z,5.40
2022-11-16T08:27:56.227Z,5.13
2022-11-16T08:31:10.457Z,4.70
2022-11-16T08:34:19.888Z,4.93
2022-11-16T08:37:32.319Z,4.90
2022-11-16T08:40:41.030Z,4.00
2022-11-16T08:43:53.263Z,4.67
2022-11-16T08:47:03.158Z,5.07
2022-11-16T08:50:19.940Z,3.50
2022-11-16T08:53:28.233Z,2.90
2022-11-16T08:56:36.574Z,3.20
2022-11-16T08:59:47.427Z,2.60
2022-11-16T09:02:56.010Z,2.50
2022-11-16T09:06:04.207Z,3.20
2022-11-16T09:09:12.666Z,2.77
2022-11-16T09:12:20.995Z,2.77
2022-11-16T09:15:30.601Z,2.90
2022-11-16T09:18:39.127Z,2.50
2022-11-16T09:21:47.271Z,1.90
2022-11-16T09:24:55.450Z,2.10
2022-11-16T09:28:03.756Z,1.70
2022-11-16T09:31:14.762Z,2.30
2022-11-16T09:34:25.554Z,2.67
2022-11-16T09:37:33.748Z,2.53
2022-11-16T09:40:47.134Z,2.73
2022-11-16T09:44:07.138Z,2.63
2022-11-16T09:47:22.157Z,1.67
2022-11-16T09:50:45.467Z,1.13
2022-11-16T09:54:01.396Z,1.20
2022-11-16T09:57:16.085Z,1.60
2022-11-16T10:00:25.285Z,1.50
2022-11-16T10:03:47.423Z,1.90
2022-11-16T10:07:02.180Z,2.50
2022-11-16T10:10:14.795Z,1.30
2022-11-16T10:13:46.061Z,1.20
2022-11-16T10:17:05.567Z,1.20
2022-11-16T10:20:38.476Z,0.77
2022-11-16T10:24:25.124Z,0.80
2022-11-16T10:28:10.075Z,1.00
2022-11-16T10:31:29.583Z,0.70
2022-11-16T10:34:50.483Z,0.97
2022-11-16T10:38:03.924Z,0.73
2022-11-16T10:41:23.947Z,0.97
2022-11-16T10:44:41.990Z,1.20
2022-11-16T10:47:59.334Z,1.07
2022-11-16T10:51:09.853Z,1.00
2022-11-16T10:54:20.144Z,1.40
2022-11-16T10:57:55.931Z,1.13
2022-11-16T11:01:04.322Z,1.00
2022-11-16T11:04:17.906Z,2.47
2022-11-16T11:07:33.760Z,2.97
2022-11-16T11:10:44.052Z,3.37
2022-11-16T11:14:10.291Z,5.00
2022-11-16T11:17:19.300Z,4.90
2022-11-16T11:20:27.500Z,5.43
2022-11-16T11:24:10.641Z,5.47
2022-11-16T11:27:33.553Z,3.57
2022-11-16T11:30:41.878Z,4.33
2022-11-16T11:33:55.070Z,4.57
2022-11-16T11:37:07.878Z,6.10
2022-11-16T11:40:22.770Z,4.33
2022-11-16T11:43:35.051Z,6.03
2022-11-16T11:47:50.424Z,5.67
2022-11-16T11:50:25.782Z,3.90
2022-11-16T11:53:48.418Z,4.67
2022-11-16T11:56:56.707Z,2.17
2022-11-16T12:00:09.181Z,1.73
2022-11-16T12:03:53.652Z,2.27
2022-11-16T12:07:16.123Z,1.47
2022-11-16T12:10:39.767Z,1.90
2022-11-16T12:14:06.499Z,2.13
2022-11-16T12:17:29.055Z,2.33
2022-11-16T12:20:54.540Z,2.07
2022-11-16T12:24:35.692Z,1.57
2022-11-16T12:27:57.836Z,1.60
2022-11-16T12:31:39.890Z,2.83
2022-11-16T12:35:09.412Z,2.33
2022-11-16T12:38:40.859Z,1.83
2022-11-16T12:42:29.239Z,1.97
2022-11-16T12:45:59.859Z,3.60
2022-11-16T12:50:04.087Z,3.10
2022-11-16T12:53:39.529Z,3.27
2022-11-16T12:57:01.081Z,3.00
2022-11-16T13:00:12.935Z,3.43
2022-11-16T13:03:33.696Z,3.10
2022-11-16T13:06:53.456Z,3.37
2022-11-16T13:10:13.847Z,2.90
2022-11-16T13:13:36.338Z,3.40
2022-11-16T13:16:47.485Z,3.47
2022-11-16T13:20:19.643Z,2.40
2022-11-16T13:23:46.887Z,3.30
2022-11-16T13:27:16.869Z,1.47
2022-11-16T13:30:34.605Z,2.30
2022-11-16T13:33:51.344Z,3.57
2022-11-16T13:37:02.256Z,2.03
2022-11-16T13:40:30.009Z,1.70
2022-11-16T13:43:38.395Z,2.50
2022-11-16T13:46:57.320Z,8.83
2022-11-16T13:50:18.531Z,1.90
2022-11-16T13:57:08.216Z,1.33
2022-11-16T14:00:25.291Z,1.03
2022-11-16T14:03:39.299Z,1.33
2022-11-16T14:07:00.759Z,3.47
2022-11-16T14:10:09.195Z,4.50
2022-11-16T14:13:40.684Z,3.20
2022-11-16T14:16:52.915Z,1.93
2022-11-16T14:20:01.138Z,2.00
2022-11-16T14:23:25.066Z,1.87
2022-11-16T14:26:51.542Z,1.70
2022-11-16T14:30:16.638Z,2.13
2022-11-16T14:33:34.195Z,2.03
2022-11-16T14:36:46.115Z,1.97
2022-11-16T14:40:02.810Z,2.03
2022-11-16T14:43:22.897Z,2.13
2022-11-16T14:46:39.378Z,2.43
2022-11-16T14:49:49.197Z,2.77
2022-11-16T14:53:04.606Z,3.00
2022-11-16T14:56:15.386Z,2.30
2022-11-16T14:59:23.596Z,1.70
2022-11-16T15:02:34.285Z,1.73
2022-11-16T15:05:45.926Z,2.23
2022-11-16T15:09:00.401Z,2.40
2022-11-16T15:12:35.117Z,2.30
2022-11-16T15:15:47.382Z,2.00
2022-11-16T15:19:02.928Z,2.57
2022-11-16T15:22:18.888Z,2.93
2022-11-16T15:25:32.407Z,2.00
2022-11-16T15:28:45.795Z,4.43
2022-11-16T15:31:57.499Z,3.37
2022-11-16T15:35:08.422Z,2.30
2022-11-16T15:38:22.003Z,2.37
2022-11-16T15:41:30.316Z,2.00
2022-11-16T15:44:39.222Z,1.87
2022-11-16T15:47:48.408Z,3.27
2022-11-16T15:51:05.813Z,3.37
2022-11-16T15:54:22.326Z,3.67
2022-11-16T15:57:30.683Z,4.10
2022-11-16T16:00:39.582Z,4.37
2022-11-16T16:03:58.802Z,3.23
2022-11-16T16:07:10.289Z,2.93
2022-11-16T16:10:26.641Z,3.37
2022-11-16T16:13:38.354Z,3.27
2022-11-16T16:16:52.952Z,3.00
2022-11-16T16:20:04.019Z,2.50
2022-11-16T16:23:17.318Z,2.17
2022-11-16T16:26:25.517Z,2.33
2022-11-16T16:29:33.658Z,6.70
2022-11-16T16:32:41.920Z,5.13
2022-11-16T16:35:51.005Z,5.23
2022-11-16T16:39:00.587Z,7.13
2022-11-16T16:42:18.131Z,7.63
2022-11-16T16:45:37.228Z,10.37
2022-11-16T16:48:45.456Z,11.43
2022-11-16T16:51:53.625Z,12.30
2022-11-16T16:55:03.230Z,12.47
2022-11-16T16:58:13.819Z,7.80
2022-11-16T17:01:22.069Z,5.30
2022-11-16T17:04:30.308Z,5.70
2022-11-16T17:07:40.760Z,6.70
2022-11-16T17:10:52.575Z,23.37
2022-11-16T17:14:01.070Z,16.03
2022-11-16T17:17:10.401Z,35.43
2022-11-16T17:20:18.813Z,17.20
2022-11-16T17:23:30.261Z,9.80
2022-11-16T17:26:41.126Z,7.63
2022-11-16T17:29:49.332Z,5.23
2022-11-16T17:32:57.514Z,6.17
2022-11-16T17:36:07.879Z,5.90
2022-11-16T17:39:16.721Z,7.50
2022-11-16T17:42:26.301Z,10.30
2022-11-16T17:45:34.456Z,11.53
2022-11-16T17:48:45.222Z,10.20
2022-11-16T17:51:53.387Z,8.53
2022-11-16T17:55:01.689Z,11.50
2022-11-16T17:58:11.139Z,9.20
2022-11-16T18:01:20.477Z,8.93
2022-11-16T18:04:28.825Z,7.50
2022-11-16T18:07:38.463Z,6.70
2022-11-16T18:10:46.623Z,8.00
2022-11-16T18:13:58.283Z,8.77
2022-11-16T18:17:06.720Z,8.60
2022-11-16T18:20:15.254Z,8.83
2022-11-16T18:23:23.413Z,7.13
2022-11-16T18:26:31.677Z,11.73
2022-11-16T18:29:41.279Z,6.87
2022-11-16T18:32:50.414Z,4.10
2022-11-16T18:35:58.593Z,4.03
2022-11-16T18:39:09.031Z,3.73
2022-11-16T18:42:17.298Z,4.23
2022-11-16T18:45:27.166Z,3.70
2022-11-16T18:48:35.999Z,4.43
2022-11-16T18:51:44.446Z,7.90
2022-11-16T18:54:52.703Z,6.80
2022-11-16T18:58:01.002Z,6.00
2022-11-16T19:01:14.340Z,4.67
2022-11-16T19:04:22.812Z,4.27
2022-11-16T19:07:31.216Z,3.53
2022-11-16T19:10:40.218Z,34.70
2022-11-16T19:13:55.054Z,11.87
2022-11-16T19:17:05.270Z,6.97
2022-11-16T19:20:15.104Z,4.77
2022-11-16T19:23:23.377Z,4.13
2022-11-16T19:26:31.790Z,5.17
2022-11-16T19:29:40.495Z,4.97
2022-11-16T19:32:50.187Z,5.33
2022-11-16T19:36:00.693Z,4.43
2022-11-16T19:39:09.118Z,3.60
2022-11-16T19:42:17.315Z,3.03
2022-11-16T19:45:25.495Z,3.50
2022-11-16T19:48:35.818Z,3.67
2022-11-16T19:51:43.996Z,4.13
2022-11-16T19:54:52.292Z,3.93
2022-11-16T19:58:00.675Z,5.80
2022-11-16T20:01:12.910Z,8.33
2022-11-16T20:04:23.016Z,7.63
2022-11-16T20:07:32.212Z,7.00
2022-11-16T20:10:40.485Z,7.40
2022-11-16T20:13:53.126Z,7.83
2022-11-16T20:17:02.368Z,8.00
2022-11-16T20:20:13.203Z,5.60
2022-11-16T20:23:21.614Z,5.70
2022-11-16T20:26:34.031Z,4.30
2022-11-16T20:29:43.382Z,3.80
2022-11-16T20:32:52.285Z,3.60
2022-11-16T20:36:08.375Z,4.27
2022-11-16T20:39:20.084Z,4.83
2022-11-16T20:42:31.304Z,4.97
2022-11-16T20:45:39.719Z,4.83
2022-11-16T20:48:48.310Z,4.90
2022-11-16T20:51:58.618Z,4.90
2022-11-16T20:55:08.168Z,4.30
2022-11-16T20:58:22.411Z,2.77
2022-11-16T21:01:32.231Z,2.87
2022-11-16T21:04:40.455Z,2.60
2022-11-16T21:07:50.348Z,3.87
2022-11-16T21:10:58.908Z,4.07
2022-11-16T21:14:18.795Z,5.13
2022-11-16T21:17:27.107Z,5.73
2022-11-16T21:20:35.413Z,6.50
2022-11-16T21:23:51.394Z,6.47
2022-11-16T21:26:59.788Z,6.40
2022-11-16T21:30:09.592Z,4.87
2022-11-16T21:33:18.015Z,3.40
2022-11-16T21:36:28.497Z,4.00
2022-11-16T21:39:38.451Z,3.03
2022-11-16T21:42:47.459Z,3.07
2022-11-16T21:46:03.990Z,3.37
2022-11-16T21:49:12.432Z,4.53
2022-11-16T21:52:20.719Z,3.70
2022-11-16T21:55:30.607Z,3.30
2022-11-16T21:58:40.494Z,3.07
2022-11-16T22:02:01.123Z,4.53
2022-11-16T22:05:28.704Z,5.23
2022-11-16T22:08:37.048Z,2.87
2022-11-16T22:11:46.842Z,2.60
2022-11-16T22:14:55.386Z,2.90
2022-11-16T22:18:04.345Z,4.87
2022-11-16T22:21:13.094Z,4.50
2022-11-16T22:24:21.249Z,4.30
2022-11-16T22:27:30.846Z,3.33
2022-11-16T22:30:38.979Z,3.00
2022-11-16T22:33:47.139Z,2.60
2022-11-16T22:36:55.442Z,2.60
2022-11-16T22:40:04.095Z,2.13
2022-11-16T22:43:14.980Z,1.80
2022-11-16T22:46:23.283Z,2.37
2022-11-16T22:49:31.529Z,3.50
2022-11-16T22:52:39.769Z,3.30
2022-11-16T22:55:47.943Z,3.10
2022-11-16T22:58:58.302Z,2.70
2022-11-16T23:02:06.541Z,2.50
2022-11-16T23:05:14.814Z,2.50
2022-11-16T23:08:24.916Z,1.83
2022-11-16T23:11:50.875Z,2.37
2022-11-16T23:15:17.973Z,2.33
2022-11-16T23:18:26.216Z,2.00
2022-11-16T23:21:52.137Z,1.60
2022-11-16T23:25:18.392Z,1.57
2022-11-16T23:28:27.218Z,2.20
2022-11-16T23:31:37.092Z,1.87
2022-11-16T23:34:45.274Z,1.73
2022-11-16T23:37:57.883Z,1.97
2022-11-16T23:41:20.592Z,1.77
2022-11-16T23:44:28.970Z,1.70
2022-11-16T23:47:38.810Z,1.40
2022-11-16T23:50:47.801Z,1.80
2022-11-16T23:53:56.498Z,1.47
2022-11-16T23:57:05.404Z,1.23
